AirNav   Free Bose QuietComfort 20
 
 1374 users online  

01FD Advent Health Altamonte Springs Heliport
Altamonte Springs, Florida, USA

GOING TO ALTAMONTE SPRINGS?


FAA INFORMATION EFFECTIVE 05 DECEMBER 2019

Location

FAA Identifier: 01FD
Lat/Long: 28-39-59.9000N 081-22-10.9200W
28-39.998333N 081-22.182000W
28.6666389,-81.3697000
(estimated)
Elevation: 86 ft. / 26 m (estimated)
Variation: 03W (1985)
Time zone: UTC -5 (UTC -4 during Daylight Saving Time)
Zip code: 32701

Heliport Operations

Heliport use: Private use, MEDICAL USE.
Activation date: 06/1991
Control tower: no
ARTCC: JACKSONVILLE CENTER
FSS: SAINT PETERSBURG FLIGHT SERVICE STATION
Attendance: CONTINUOUS
Wind indicator: yes
Segmented circle: no
Lights: FOR PERIMETER LGTS CALL 407-897-1613.
Beacon: white-green-yellow (heliport)
FOR ROTG BCN CALL 407-897-1613.

Heliport Communications

WX ASOS at ORL (8 nm S): PHONE 407-658-6753
WX ASOS at SFB (10 nm NE): PHONE 407-321-9384
WX ASOS at MCO (15 nm S): PHONE 407-855-5235

Nearby radio navigation aids

VOR radial/distance  VOR name  Freq  Var
ORLr346/7.7ORLANDO VORTAC112.2000E

Heliport Services

Runway Information

Helipad H1

Dimensions: 110 x 110 ft. / 34 x 34 m
Surface: concrete
Runway edge lights: PERI
Latitude: 28-39.998333N
Longitude: 081-22.182000W
Elevation: 86.0 ft.
Traffic pattern: leftleft

Heliport Ownership and Management from official FAA records

Ownership: Privately-owned
Owner: 1 ADVENTIST HEALTH SYSTEM
901 NORTH LAKE DESTINY RD STE 375
MAITLAND, FL 32751-6135
Phone 407-303-1610
Manager: RICHARD NETTLES
601 ROLLINS AVENUE, BOX 161
ORLANDO, FL 32803
Phone (407) 303-8832
ADDITIONAL CONTACT: JAVIER PEREZ, 407-303-2222, JAVIER.PEREZ@FLHOSP.ORG

Additional Remarks

FOR CD CTC ORLANDO APCH AT 407-852-7553.

Instrument Procedures

There are no published instrument procedures at 01FD.

Some nearby airports with instrument procedures:

KORL - Executive Airport (8 nm S)
KSFB - Orlando Sanford International Airport (10 nm NE)
X04 - Orlando Apopka Airport (11 nm W)
KMCO - Orlando International Airport (15 nm S)
X23 - Umatilla Municipal Airport (21 nm NW)
 
Loc | Ops | Rwys | IFR | FBO | Links
Com | Nav | Svcs | Stats | Notes


 
Area around 01FD (Advent Health Altamonte Springs Heliport)
 
Road maps at: MapQuest Bing Google
 
Aerial photo
WARNING: Photo may not be current or correct
Aerial photo of 01FD (Advent Health Altamonte Springs Heliport)
Photo by Don F. Pease
Photo taken 01-Feb-2005
looking east.

Do you have a better or more recent aerial photo of Advent Health Altamonte Springs Heliport that you would like to share? If so, please send us your photo.

 
Sectional chart

 
Airport distance calculator
Flying to Advent Health Altamonte Springs Heliport? Find the distance to fly.

From to 01FD

Sunrise and sunset
Times for 09-Dec-2019
 Local
(UTC-5)
 Zulu
(UTC)
Morning civil twilight06:4211:42
Sunrise07:0812:08
Sunset17:2822:28
Evening civil twilight17:5422:54

Current date and time
Zulu (UTC)  09-Dec-2019 18:25:42
Local (UTC-5)  09-Dec-2019 13:25:42
 
METAR
KORL 
7nm S 
091753Z 20007KT 10SM CLR 27/16 A3009 RMK AO2 SLP192 T02670161 10267 20150 58024
KSFB 
10nm NE 
091753Z 16007KT 10SM CLR 27/15 A3008 RMK AO2 SLP186 T02670150 10267 20133 58024
KMCO 
15nm S 
091753Z 12007KT 10SM FEW040 BKN300 27/16 A3009 RMK AO2 SLP187 T02670156 10272 20139 58024
TAF
KSFB 
10nm NE 
091729Z 0918/1018 17008KT P6SM FEW035 SCT250 FM100000 VRB03KT P6SM SCT250 TEMPO 1010/1013 4SM BR SCT003 FM101500 16008KT P6SM SCT030 SCT250
KMCO 
15nm S 
091729Z 0918/1024 17008KT P6SM FEW035 SCT250 FM100000 VRB03KT P6SM SCT250 TEMPO 1010/1013 4SM BR SCT003 FM101500 16008KT P6SM SCT030 SCT250
NOTAMs
Click for the latest NOTAMs
NOTAMs are issued by the DoD/FAA and will open in a separate window not controlled by AirNav.

 

 
 

Would you like to see your business listed on this page?

 If your business provides an interesting product or service to pilots, flight crews, aircraft, or users of the Advent Health Altamonte Springs Heliport, you should consider listing it here.  To start the listing process, click on the button below
 
Add a business
 

Other Pages about Advent Health Altamonte Springs Heliport

Update a link
 
Copyright © AirNav, LLC. All rights reserved. Privacy Policy  Contact